Time;durP1;ratioP1;P1;durP2;ratioP2;P2;SDS_P1;SDS_P2;PMS_P1;PMS_P2;Temp;Humidity;BMP_temperature;BMP_pressure;BME280_temperature;BME280_humidity;BME280_pressure;Samples;Min_cycle;Max_cycle;Signal;HPM_P1;HPM_P2
2022/10/07 00:02:05;;;;;;;12.95;8.93;;;;;;;11.34;92.34;97395.66;5016349;28;20045;-83
2022/10/07 00:04:32;;;;;;;14.18;9.70;;;;;;;11.35;91.94;97400.00;5018987;28;20057;-84
2022/10/07 00:06:59;;;;;;;15.20;9.85;;;;;;;11.34;91.86;97395.66;5019593;28;20137;-84
2022/10/07 00:09:26;;;;;;;15.63;10.43;;;;;;;11.34;91.03;97399.22;5020695;28;20634;-83
2022/10/07 00:11:54;;;;;;;12.98;9.45;;;;;;;11.33;91.42;97392.13;5007446;28;20060;-84
2022/10/07 00:14:20;;;;;;;16.15;9.00;;;;;;;11.32;91.20;97398.66;5041260;28;20042;-83
2022/10/07 00:16:47;;;;;;;12.23;8.45;;;;;;;11.23;90.08;97390.38;5041820;28;20051;-84
2022/10/07 00:19:14;;;;;;;13.18;8.23;;;;;;;11.24;90.18;97392.00;5014010;28;20517;-83
2022/10/07 00:21:41;;;;;;;12.25;8.27;;;;;;;11.22;89.56;97394.22;5019507;28;20046;-85
2022/10/07 00:24:09;;;;;;;16.60;8.75;;;;;;;11.18;89.88;97398.63;5001223;28;20137;-83
2022/10/07 00:26:37;;;;;;;16.48;8.60;;;;;;;11.18;89.85;97390.47;5018766;28;20045;-84
2022/10/07 00:29:06;;;;;;;15.50;8.15;;;;;;;11.13;88.98;97378.81;5025058;28;20151;-83
2022/10/07 00:31:35;;;;;;;16.65;7.97;;;;;;;11.03;88.24;97384.44;5025731;28;20452;-84
2022/10/07 00:34:04;;;;;;;27.67;7.72;;;;;;;10.94;87.99;97382.34;5035330;28;20047;-84
2022/10/07 00:36:32;;;;;;;17.50;6.80;;;;;;;10.87;88.14;97386.56;5007745;28;20110;-83
2022/10/07 00:39:01;;;;;;;16.92;14.20;;;;;;;10.84;87.94;97384.41;5024816;28;20054;-83
2022/10/07 00:41:31;;;;;;;14.05;7.07;;;;;;;10.77;87.57;97383.97;4990541;28;20514;-83
2022/10/07 00:43:58;;;;;;;13.35;6.65;;;;;;;10.74;87.67;97371.75;5023965;28;20045;-84
2022/10/07 00:46:31;;;;;;;14.80;7.53;;;;;;;10.76;88.04;97369.56;5005466;28;20045;-84
2022/10/07 00:49:01;;;;;;;11.63;7.03;;;;;;;10.74;88.68;97360.03;5021457;28;20125;-83
2022/10/07 00:51:28;;;;;;;12.00;7.50;;;;;;;10.75;89.72;97364.38;5022910;28;20473;-84
2022/10/07 00:53:56;;;;;;;10.45;7.47;;;;;;;10.76;90.10;97353.22;5022213;28;20042;-83
2022/10/07 00:56:26;;;;;;;10.27;6.85;;;;;;;10.71;89.68;97348.63;5011364;28;20058;-84
2022/10/07 00:58:55;;;;;;;8.13;6.25;;;;;;;10.74;90.03;97354.59;5002640;28;20117;-84
2022/10/07 01:01:22;;;;;;;11.02;7.65;;;;;;;10.76;89.62;97346.97;5010953;28;20577;-83
2022/10/07 01:03:49;;;;;;;9.23;6.55;;;;;;;10.62;89.29;97339.50;5023803;28;20074;-83
2022/10/07 01:06:16;;;;;;;8.93;6.55;;;;;;;10.56;89.22;97337.97;5029433;28;20053;-85
2022/10/07 01:08:46;;;;;;;11.77;6.75;;;;;;;10.51;89.43;97335.31;5030468;28;20116;-84
2022/10/07 01:11:23;;;;;;;11.10;7.70;;;;;;;10.46;90.05;97327.19;5030126;28;20037;-85
2022/10/07 01:14:01;;;;;;;13.23;8.10;;;;;;;10.52;90.85;97326.03;5030047;28;20070;-86
2022/10/07 01:16:36;;;;;;;10.63;8.27;;;;;;;10.66;92.30;97335.09;5029681;28;20114;-85
2022/10/07 01:19:13;;;;;;;13.57;7.82;;;;;;;10.73;92.74;97332.00;5029128;28;20053;-84
2022/10/07 01:21:52;;;;;;;11.75;7.88;;;;;;;10.79;93.29;97324.56;5027111;28;20052;-85
2022/10/07 01:24:32;;;;;;;14.35;9.38;;;;;;;10.82;93.25;97319.34;5025047;28;20049;-84
2022/10/07 01:27:03;;;;;;;11.60;8.68;;;;;;;10.83;93.06;97309.25;4994705;28;20057;-84
2022/10/07 01:29:35;;;;;;;13.73;9.43;;;;;;;10.87;93.31;97310.28;5028194;28;20138;-84
2022/10/07 01:32:06;;;;;;;11.20;8.68;;;;;;;10.86;93.34;97305.94;5027073;28;20068;-84
2022/10/07 01:34:35;;;;;;;12.50;8.50;;;;;;;10.80;93.35;97307.09;5022088;28;20056;-84
2022/10/07 01:37:07;;;;;;;15.65;9.52;;;;;;;10.75;93.43;97307.16;5022367;28;20062;-83
2022/10/07 01:39:38;;;;;;;13.02;8.00;;;;;;;10.76;93.52;97297.91;5023263;28;20129;-83
2022/10/07 01:42:07;;;;;;;14.82;8.52;;;;;;;10.80;93.74;97293.47;5004741;28;20050;-83
2022/10/07 01:44:33;;;;;;;11.95;8.60;;;;;;;10.86;94.39;97292.31;5022405;28;20054;-83
2022/10/07 01:47:00;;;;;;;12.50;8.75;;;;;;;10.92;94.74;97286.47;5021277;28;20076;-84
2022/10/07 01:49:28;;;;;;;11.75;8.77;;;;;;;10.96;94.60;97287.50;5018547;28;20037;-84
2022/10/07 01:52:11;;;;;;;14.45;9.40;;;;;;;10.95;94.46;97285.88;5019230;28;20065;-83
2022/10/07 01:54:55;;;;;;;11.75;8.13;;;;;;;10.94;94.66;97284.25;4986469;28;20042;-83
2022/10/07 01:57:32;;;;;;;11.60;7.82;;;;;;;10.97;95.06;97285.59;5002875;28;20050;-84
2022/10/07 02:00:06;;;;;;;9.48;7.30;;;;;;;10.99;95.28;97286.09;5019405;28;20041;-85
2022/10/07 02:02:47;;;;;;;10.85;6.65;;;;;;;11.05;95.26;97284.09;5018832;28;20045;-84
2022/10/07 02:05:25;;;;;;;8.70;7.80;;;;;;;11.06;95.43;97275.59;5020899;28;20416;-84
2022/10/07 02:08:03;;;;;;;8.50;7.70;;;;;;;11.06;95.49;97281.06;5003994;28;20060;-83
2022/10/07 02:10:37;;;;;;;7.45;6.65;;;;;;;11.06;95.48;97283.78;5019809;28;20132;-84
2022/10/07 02:13:08;;;;;;;;;;;;;;;11.10;95.55;97281.28;5020751;28;20045;-83
2022/10/07 02:15:41;;;;;;;8.43;7.30;;;;;;;11.12;95.47;97284.50;5022414;28;20403;-84
2022/10/07 02:18:11;;;;;;;;;;;;;;;11.11;95.46;97282.88;5023533;28;20045;-85
2022/10/07 02:20:40;;;;;;;6.78;6.00;;;;;;;11.16;95.48;97278.16;5006987;28;20372;-86
2022/10/07 02:23:10;;;;;;;9.55;7.03;;;;;;;11.11;95.70;97272.78;5005716;28;20053;-83
2022/10/07 02:25:41;;;;;;;7.72;6.68;;;;;;;11.10;95.42;97270.38;5025109;28;20125;-84
2022/10/07 02:28:14;;;;;;;6.68;5.82;;;;;;;11.09;95.43;97275.00;5023162;28;20129;-84
2022/10/07 02:30:43;;;;;;;6.75;6.03;;;;;;;11.09;95.43;97272.28;5023467;28;20130;-85
2022/10/07 02:33:16;;;;;;;7.10;6.40;;;;;;;11.13;95.39;97270.59;5022670;28;20450;-84
2022/10/07 02:35:51;;;;;;;6.97;6.28;;;;;;;11.17;95.17;97265.34;5019788;28;20433;-84
2022/10/07 02:38:19;;;;;;;6.57;5.88;;;;;;;11.21;95.35;97267.16;5020416;28;20049;-83
2022/10/07 02:40:55;;;;;;;6.32;5.72;;;;;;;11.23;95.24;97259.50;5018891;28;20048;-83
2022/10/07 02:43:29;;;;;;;5.97;5.38;;;;;;;11.27;95.19;97261.63;5020324;28;20060;-83
2022/10/07 02:46:03;;;;;;;6.28;5.63;;;;;;;11.26;95.03;97260.00;5002120;28;20058;-84
2022/10/07 02:48:35;;;;;;;6.18;5.43;;;;;;;11.27;95.20;97253.44;5021874;28;20485;-84
2022/10/07 02:51:06;;;;;;;7.10;5.63;;;;;;;11.29;95.07;97257.50;5017606;28;20041;-83
2022/10/07 02:53:35;;;;;;;5.72;5.13;;;;;;;11.30;95.01;97252.84;5021801;28;20066;-84
2022/10/07 02:56:04;;;;;;;7.93;5.55;;;;;;;11.30;94.84;97253.66;5003467;28;20049;-82
2022/10/07 02:58:35;;;;;;;5.45;4.93;;;;;;;11.31;94.71;97254.47;5021522;28;20046;-83
2022/10/07 03:01:04;;;;;;;6.45;5.75;;;;;;;11.32;94.68;97256.06;5021411;28;20069;-80
2022/10/07 03:03:31;;;;;;;8.93;6.15;;;;;;;11.31;94.85;97247.09;5021865;28;20061;-83
2022/10/07 03:05:58;;;;;;;7.97;6.45;;;;;;;11.34;95.01;97248.41;5022091;28;20134;-84
2022/10/07 03:08:25;;;;;;;7.70;6.45;;;;;;;11.33;94.78;97241.31;5021382;28;20065;-84
2022/10/07 03:10:52;;;;;;;8.02;6.20;;;;;;;11.38;95.07;97243.97;5022659;28;20046;-83
2022/10/07 03:13:19;;;;;;;6.57;5.57;;;;;;;11.41;95.06;97243.38;5021338;28;20436;-84
2022/10/07 03:15:47;;;;;;;8.73;6.80;;;;;;;11.38;95.12;97233.88;5022568;28;20485;-84
2022/10/07 03:18:27;;;;;;;8.63;6.07;;;;;;;11.41;95.01;97233.25;5022142;28;20374;-83
2022/10/07 03:20:54;;;;;;;8.27;6.45;;;;;;;11.39;94.40;97229.25;4995906;28;20046;-84
2022/10/07 03:23:21;;;;;;;8.05;6.07;;;;;;;11.37;94.28;97232.25;5000464;28;20065;-83
2022/10/07 03:25:50;;;;;;;7.72;6.13;;;;;;;11.37;93.73;97234.16;4985693;28;20114;-83
2022/10/07 03:28:17;;;;;;;10.25;5.70;;;;;;;11.40;93.92;97236.31;5003737;28;20048;-84
2022/10/07 03:30:43;;;;;;;8.43;5.88;;;;;;;11.38;93.57;97233.88;5005354;28;20102;-84
2022/10/07 03:33:12;;;;;;;7.43;5.88;;;;;;;11.34;93.41;97226.59;5012205;28;20050;-84
2022/10/07 03:35:38;;;;;;;10.13;6.18;;;;;;;11.34;93.60;97238.31;5040443;28;20071;-85
2022/10/07 03:38:07;;;;;;;9.10;6.20;;;;;;;11.33;93.43;97230.41;5044238;28;20507;-85
2022/10/07 03:40:34;;;;;;;7.20;5.80;;;;;;;11.32;93.50;97228.81;5043122;28;20093;-86
2022/10/07 03:43:00;;;;;;;8.02;6.22;;;;;;;11.35;93.78;97222.75;5024997;28;20081;-84
2022/10/07 03:45:29;;;;;;;8.70;6.75;;;;;;;11.35;93.44;97222.75;5024823;28;20109;-86
2022/10/07 03:47:56;;;;;;;9.05;7.18;;;;;;;11.36;93.59;97218.91;5026098;28;20058;-85
2022/10/07 03:50:24;;;;;;;11.25;7.50;;;;;;;11.40;93.22;97211.75;5007691;28;20048;-85
2022/10/07 03:52:51;;;;;;;10.75;6.70;;;;;;;11.35;92.94;97217.31;5025548;28;20046;-85
2022/10/07 03:55:18;;;;;;;8.95;6.35;;;;;;;11.31;92.78;97221.75;5024084;28;20132;-85
2022/10/07 03:57:52;;;;;;;7.63;6.10;;;;;;;11.34;93.21;97215.69;5025752;28;20196;-86
2022/10/07 04:00:21;;;;;;;11.07;7.53;;;;;;;11.26;93.22;97224.56;5021156;28;20050;-86
2022/10/07 04:02:48;;;;;;;7.97;6.03;;;;;;;11.27;93.29;97213.34;5009968;28;20049;-85
2022/10/07 04:05:15;;;;;;;7.63;6.10;;;;;;;11.32;93.51;97217.91;5009607;28;20137;-85
2022/10/07 04:07:44;;;;;;;9.15;7.07;;;;;;;11.34;93.15;97210.25;5009941;28;20133;-85
2022/10/07 04:10:12;;;;;;;7.32;6.10;;;;;;;11.35;93.25;97209.13;5026572;28;20183;-85
2022/10/07 04:12:39;;;;;;;7.53;5.93;;;;;;;11.35;93.17;97206.41;5009275;28;20045;-85
2022/10/07 04:15:06;;;;;;;9.00;6.10;;;;;;;11.37;93.35;97209.63;5022745;28;20074;-85
2022/10/07 04:20:15;;;;;;;7.97;6.63;;;;;;;11.30;92.16;97204.56;5026752;28;20050;-85
2022/10/07 04:22:42;;;;;;;7.97;6.60;;;;;;;11.25;92.19;97201.94;5012525;28;20045;-85
2022/10/07 04:27:58;;;;;;;8.13;6.40;;;;;;;11.16;92.23;97201.03;5026879;28;20049;-85
2022/10/07 04:30:27;;;;;;;9.65;6.25;;;;;;;11.12;92.04;97198.09;5023392;28;20046;-84
2022/10/07 04:32:54;;;;;;;8.20;6.05;;;;;;;11.10;92.26;97200.31;5024211;28;20128;-84
2022/10/07 04:35:22;;;;;;;11.18;6.80;;;;;;;11.08;92.14;97199.81;5022787;28;20046;-84
2022/10/07 04:37:56;;;;;;;7.63;6.30;;;;;;;11.09;92.18;97193.25;5027203;28;20042;-85
2022/10/07 04:40:26;;;;;;;9.30;6.68;;;;;;;11.09;92.36;97192.44;5026948;28;20493;-84
2022/10/07 04:45:37;;;;;;;9.10;6.63;;;;;;;11.11;92.23;97191.00;5026273;28;20053;-86
2022/10/07 04:48:05;;;;;;;8.60;6.65;;;;;;;11.09;92.02;97190.53;5022905;28;20060;-84
2022/10/07 04:50:32;;;;;;;10.75;7.78;;;;;;;11.06;91.79;97185.66;5005377;28;20046;-84
2022/10/07 04:52:59;;;;;;;9.50;6.95;;;;;;;11.04;91.97;97187.09;5022786;28;20048;-83
2022/10/07 04:55:27;;;;;;;12.23;7.03;;;;;;;11.00;91.64;97178.69;5003233;28;20041;-84
2022/10/07 04:57:53;;;;;;;7.45;6.07;;;;;;;10.96;91.94;97188.56;5021169;28;20577;-85
2022/10/07 05:00:20;;;;;;;8.52;6.50;;;;;;;10.90;92.08;97181.59;5020283;28;20065;-84
2022/10/07 05:02:49;;;;;;;7.97;6.30;;;;;;;10.90;92.31;97178.88;5003447;28;20159;-83
2022/10/07 05:05:16;;;;;;;7.78;6.88;;;;;;;10.90;92.17;97179.66;5020204;28;20053;-83
2022/10/07 05:07:43;;;;;;;8.02;6.53;;;;;;;10.93;92.22;97175.56;5017707;28;20068;-77
2022/10/07 05:10:10;;;;;;;9.55;7.22;;;;;;;10.91;91.69;97175.03;4996665;28;20081;-81
2022/10/07 05:12:40;;;;;;;8.48;7.00;;;;;;;10.88;91.29;97181.09;5013522;28;20061;-80
2022/10/07 05:15:08;;;;;;;8.23;6.00;;;;;;;10.83;91.24;97179.25;5014148;28;20053;-82
2022/10/07 05:17:34;;;;;;;7.93;6.30;;;;;;;10.83;91.28;97178.47;5015562;28;20623;-81
2022/10/07 05:20:01;;;;;;;9.57;5.90;;;;;;;10.80;91.21;97173.59;5014849;28;20054;-81
2022/10/07 05:22:28;;;;;;;7.85;6.50;;;;;;;10.76;90.85;97172.59;5012966;28;20386;-79
2022/10/07 05:24:54;;;;;;;10.25;7.53;;;;;;;10.73;90.69;97178.63;5014784;28;20580;-78
2022/10/07 05:27:21;;;;;;;9.05;6.15;;;;;;;10.69;90.79;97181.94;5015677;28;20050;-80
2022/10/07 05:29:51;;;;;;;8.48;6.18;;;;;;;10.66;90.37;97179.84;4998086;28;20073;-81
2022/10/07 05:32:18;;;;;;;8.02;5.60;;;;;;;10.63;90.57;97180.41;4998339;28;20050;-79
2022/10/07 05:34:51;;;;;;;9.00;6.18;;;;;;;10.66;91.03;97179.84;5019845;28;20042;-79
2022/10/07 05:37:23;;;;;;;14.40;6.28;;;;;;;10.66;91.31;97179.84;5038137;28;20049;-81
2022/10/07 05:39:50;;;;;;;13.45;7.07;;;;;;;10.64;91.42;97173.06;5017976;28;20776;-79
2022/10/07 05:42:17;;;;;;;8.07;5.78;;;;;;;10.61;91.34;97174.47;5019229;28;20077;-80
2022/10/07 05:44:50;;;;;;;9.30;6.97;;;;;;;10.58;91.01;97172.31;5016459;28;20061;-81
2022/10/07 05:47:19;;;;;;;8.70;6.18;;;;;;;10.58;91.03;97172.31;5017931;28;20125;-80
2022/10/07 05:49:46;;;;;;;10.05;6.30;;;;;;;10.59;91.57;97173.13;5017285;28;20505;-80
2022/10/07 05:52:16;;;;;;;13.05;6.60;;;;;;;10.58;91.24;97177.78;4992383;28;20133;-80
2022/10/07 05:54:42;;;;;;;7.15;6.07;;;;;;;10.58;91.43;97169.59;4997360;28;20129;-79
2022/10/07 05:57:09;;;;;;;7.72;6.10;;;;;;;10.56;91.34;97180.00;4996906;28;20134;-80
2022/10/07 05:59:36;;;;;;;6.70;5.70;;;;;;;10.57;91.21;97176.16;4977935;28;20054;-79
2022/10/07 06:02:03;;;;;;;8.35;5.88;;;;;;;10.56;91.25;97179.19;5009230;28;20045;-80
2022/10/07 06:04:32;;;;;;;10.30;6.90;;;;;;;10.56;91.36;97180.00;5014489;28;20117;-79
2022/10/07 06:07:00;;;;;;;11.23;7.07;;;;;;;10.61;91.87;97181.84;5015214;28;20677;-80
2022/10/07 06:14:58;;;;;;;9.35;6.68;;;;;;;10.77;93.21;97176.94;5034750;28;20041;-80
2022/10/07 06:17:24;;;;;;;12.43;8.65;;;;;;;10.77;93.70;97183.19;5037694;28;20064;-78
2022/10/07 06:19:52;;;;;;;15.98;8.68;;;;;;;10.91;94.07;97180.47;5031943;28;20081;-80
2022/10/07 06:22:19;;;;;;;16.65;8.68;;;;;;;10.93;94.22;97192.72;4998332;28;20046;-80
2022/10/07 06:24:45;;;;;;;13.95;7.68;;;;;;;11.02;94.55;97181.94;4999664;28;20054;-81
2022/10/07 06:27:12;;;;;;;15.48;8.40;;;;;;;11.08;94.31;97182.66;5015308;28;20428;-78
2022/10/07 06:29:42;;;;;;;9.38;7.80;;;;;;;11.16;94.68;97187.38;5015982;28;20049;-81
2022/10/07 06:32:14;;;;;;;14.63;10.00;;;;;;;11.22;95.04;97184.28;4996757;28;20050;-78
2022/10/07 06:34:41;;;;;;;20.38;11.88;;;;;;;11.20;95.56;97186.50;5031784;28;20439;-78
2022/10/07 06:37:13;;;;;;;20.08;12.52;;;;;;;11.24;96.09;97179.34;5035175;28;20152;-77
2022/10/07 06:39:42;;;;;;;21.90;13.55;;;;;;;11.30;96.80;97182.75;5021249;28;20049;-78
2022/10/07 06:42:09;;;;;;;33.53;17.30;;;;;;;11.32;97.31;97182.44;5015354;28;20129;-78
2022/10/07 06:44:39;;;;;;;33.47;17.02;;;;;;;11.32;98.15;97179.72;5016238;28;20105;-84
2022/10/07 06:47:18;;;;;;;30.90;14.45;;;;;;;11.12;98.72;97176.31;5007801;28;20038;-84
2022/10/07 06:49:45;;;;;;;27.35;12.90;;;;;;;11.13;98.76;97182.56;5012636;28;20076;-85
2022/10/07 06:52:13;;;;;;;23.45;12.10;;;;;;;11.21;98.03;97179.91;4995527;28;20057;-86
2022/10/07 06:54:39;;;;;;;31.80;13.93;;;;;;;11.16;98.40;97177.28;5026998;28;20470;-84
2022/10/07 06:57:06;;;;;;;20.80;12.32;;;;;;;11.21;98.63;97185.38;5008693;28;20042;-86
2022/10/07 06:59:35;;;;;;;20.02;12.68;;;;;;;11.31;97.82;97186.31;5027707;28;20137;-86
2022/10/07 07:02:03;;;;;;;21.77;12.05;;;;;;;11.40;97.97;97187.22;5027640;28;20049;-84
2022/10/07 07:04:33;;;;;;;32.33;13.13;;;;;;;11.45;98.35;97189.84;5027335;28;20061;-83
2022/10/07 07:07:01;;;;;;;23.67;13.02;;;;;;;11.49;98.54;97190.88;5029436;28;20106;-86
2022/10/07 07:09:29;;;;;;;24.58;13.15;;;;;;;11.36;98.85;97191.66;5010610;28;20046;-85
2022/10/07 07:11:56;;;;;;;27.17;13.15;;;;;;;11.43;99.03;97187.44;5030471;28;20128;-86
2022/10/07 07:14:24;;;;;;;25.40;12.65;;;;;;;11.46;98.97;97192.25;5027218;28;20456;-85
2022/10/07 07:16:51;;;;;;;27.65;13.02;;;;;;;11.55;99.15;97188.84;5026999;28;20045;-85
2022/10/07 07:19:25;;;;;;;33.53;14.50;;;;;;;11.62;99.81;97191.97;5024898;28;20056;-85
2022/10/07 07:21:55;;;;;;;36.63;15.35;;;;;;;11.71;99.94;97188.22;4988564;28;20078;-85
2022/10/07 07:24:22;;;;;;;48.72;18.77;;;;;;;11.55;99.91;97186.91;4994239;28;20109;-85
2022/10/07 07:26:50;;;;;;;47.03;17.77;;;;;;;11.64;100.00;97187.00;5025578;28;20485;-87
2022/10/07 07:29:17;;;;;;;42.67;18.65;;;;;;;11.67;99.83;97192.66;5025810;28;20128;-85
2022/10/07 07:31:44;;;;;;;39.53;16.33;;;;;;;11.75;99.99;97180.25;5013539;28;20511;-78
2022/10/07 07:34:12;;;;;;;50.65;19.33;;;;;;;11.81;100.00;97186.38;5023852;28;20416;-79
2022/10/07 07:36:43;;;;;;;46.97;18.45;;;;;;;11.53;100.00;97191.84;5034066;28;20051;-79
2022/10/07 07:39:11;;;;;;;50.85;20.58;;;;;;;11.22;100.00;97187.00;5033305;28;20041;-78
2022/10/07 07:41:40;;;;;;;41.50;16.98;;;;;;;11.12;100.00;97181.75;5004846;28;20073;-78
2022/10/07 07:44:12;;;;;;;42.72;18.52;;;;;;;11.21;100.00;97190.03;5014151;28;20054;-78
2022/10/07 07:46:42;;;;;;;42.97;17.38;;;;;;;11.37;100.00;97182.34;5021818;28;20046;-83
2022/10/07 07:49:10;;;;;;;51.28;19.60;;;;;;;11.49;100.00;97183.47;5025227;28;20050;-82
2022/10/07 07:51:38;;;;;;;49.60;22.23;;;;;;;11.49;100.00;97179.94;5020728;28;20732;-83
2022/10/07 07:54:06;;;;;;;51.90;22.02;;;;;;;11.51;100.00;97183.19;5028862;28;20042;-85
2022/10/07 07:56:32;;;;;;;48.20;21.98;;;;;;;11.40;100.00;97177.13;5022241;28;20050;-85
2022/10/07 07:58:59;;;;;;;42.35;19.05;;;;;;;11.54;100.00;97182.56;5028315;28;20132;-84
2022/10/07 08:01:30;;;;;;;49.95;21.80;;;;;;;11.66;100.00;97185.59;5023127;28;20117;-87
2022/10/07 08:03:57;;;;;;;45.92;20.63;;;;;;;11.80;100.00;97182.03;5029514;28;20486;-86
2022/10/07 08:06:27;;;;;;;52.08;22.38;;;;;;;11.94;100.00;97177.38;5017049;28;20050;-86
2022/10/07 08:08:56;;;;;;;49.38;22.27;;;;;;;11.99;100.00;97180.00;5027236;28;20074;-87
2022/10/07 08:11:25;;;;;;;49.40;21.90;;;;;;;11.90;100.00;97173.66;5028505;28;20147;-86
2022/10/07 08:16:35;;;;;;;41.70;21.48;;;;;;;11.77;100.00;97169.81;5018985;28;20124;-86
2022/10/07 08:19:02;;;;;;;42.88;21.20;;;;;;;11.86;100.00;97172.66;5028447;28;20050;-81
2022/10/07 08:21:31;;;;;;;41.85;21.05;;;;;;;11.92;100.00;97174.16;5029207;28;20046;-86
2022/10/07 08:23:59;;;;;;;49.45;21.42;;;;;;;11.91;100.00;97169.84;5004699;28;20124;-83
2022/10/07 08:26:28;;;;;;;50.30;22.65;;;;;;;11.94;100.00;97166.47;5023344;28;20042;-86
2022/10/07 08:28:56;;;;;;;47.10;22.90;;;;;;;11.94;99.83;97163.75;5007137;28;20489;-83
2022/10/07 08:31:26;;;;;;;45.92;22.83;;;;;;;11.79;99.51;97166.78;5017940;28;20045;-81
2022/10/07 08:33:56;;;;;;;50.38;22.98;;;;;;;11.72;100.00;97168.00;5010377;28;20076;-78
2022/10/07 08:36:24;;;;;;;49.13;23.05;;;;;;;11.64;100.00;97165.16;5025002;28;20048;-82
2022/10/07 08:38:51;;;;;;;46.35;23.38;;;;;;;11.70;100.00;97164.78;5016796;28;20042;-78
2022/10/07 08:41:30;;;;;;;48.00;22.90;;;;;;;11.74;100.00;97160.34;5012755;28;20142;-80
2022/10/07 08:43:57;;;;;;;44.67;22.13;;;;;;;11.89;100.00;97159.19;5000354;28;20057;-80
2022/10/07 08:46:28;;;;;;;46.03;22.70;;;;;;;11.86;99.82;97167.22;5016159;28;20046;-80
2022/10/07 08:49:05;;;;;;;51.10;24.33;;;;;;;11.84;99.50;97161.22;5003085;28;20045;-81
2022/10/07 08:51:38;;;;;;;50.38;23.45;;;;;;;11.67;100.00;97157.19;5017086;28;20501;-79
2022/10/07 08:54:06;;;;;;;54.03;24.92;;;;;;;11.63;100.00;97158.91;5015033;28;20128;-81
2022/10/07 08:56:34;;;;;;;59.72;25.65;;;;;;;11.56;100.00;97144.88;5000968;28;20046;-86
2022/10/07 08:59:14;;;;;;;53.75;25.23;;;;;;;11.67;100.00;97146.28;4984138;28;20109;-84
2022/10/07 09:01:57;;;;;;;50.45;24.15;;;;;;;11.86;100.00;97145.38;5001097;28;20523;-83
2022/10/07 09:04:40;;;;;;;52.15;25.83;;;;;;;11.84;100.00;97147.59;5009007;28;20050;-79
2022/10/07 09:07:13;;;;;;;55.47;25.42;;;;;;;11.83;100.00;97141.31;4995988;28;20045;-78
2022/10/07 09:09:45;;;;;;;45.47;23.40;;;;;;;12.01;100.00;97142.31;4996233;28;20060;-82
2022/10/07 09:12:21;;;;;;;57.72;26.73;;;;;;;11.90;100.00;97140.91;5014359;28;20081;-77
2022/10/07 09:14:52;;;;;;;49.47;23.67;;;;;;;12.13;100.00;97131.66;5020500;28;20038;-78
2022/10/07 09:17:29;;;;;;;48.58;24.35;;;;;;;12.31;99.58;97129.03;5017917;28;20065;-77
2022/10/07 09:20:04;;;;;;;49.45;25.38;;;;;;;12.23;99.67;97125.94;5029863;28;20050;-88
2022/10/07 09:22:34;;;;;;;48.35;25.30;;;;;;;12.28;100.00;97123.09;5027502;28;20050;-79
2022/10/07 09:25:18;;;;;;;48.35;23.05;;;;;;;12.44;99.70;97133.66;5018792;28;20048;-80
2022/10/07 09:27:44;;;;;;;;;;;;;;;12.27;97.98;97123.41;5018188;28;20468;-76
2022/10/07 09:30:13;;;;;;;50.28;24.98;;;;;;;12.17;98.43;97121.72;5018656;28;19988;-75
2022/10/07 09:32:43;;;;;;;48.10;23.75;;;;;;;12.18;98.80;97128.78;5017679;28;20056;-77
2022/10/07 09:35:16;;;;;;;47.22;24.85;;;;;;;12.24;98.47;97122.09;5017288;28;20638;-77
2022/10/07 09:37:59;;;;;;;41.15;22.48;;;;;;;12.37;98.05;97127.78;5016510;28;20054;-77
2022/10/07 09:41:13;;;;;;;50.85;25.42;;;;;;;12.20;98.71;97123.81;5016425;28;20045;-77
2022/10/07 09:43:29;;;;;;;47.10;25.60;;;;;;;12.27;98.91;97124.22;5020524;28;20845;-84
2022/10/07 09:48:37;;;;;;;41.47;22.55;;;;;;;12.53;99.14;97131.78;5025210;28;20038;-86
2022/10/07 09:51:17;;;;;;;43.78;24.02;;;;;;;12.43;97.66;97126.56;5033540;28;20046;-84
2022/10/07 09:53:58;;;;;;;43.78;25.60;;;;;;;12.24;98.39;97122.09;5014605;28;20050;-86
2022/10/07 09:56:39;;;;;;;42.47;22.10;;;;;;;12.50;97.37;97118.75;5005700;28;20134;-87
2022/10/07 09:59:27;;;;;;;46.47;24.10;;;;;;;12.64;97.52;97111.28;5008126;28;20050;-87
2022/10/07 10:01:56;;;;;;;44.42;25.20;;;;;;;12.79;97.32;97101.88;5004042;28;20050;-87
2022/10/07 10:04:29;;;;;;;47.15;25.48;;;;;;;12.84;96.85;97111.84;5008874;28;20079;-86
2022/10/07 10:07:01;;;;;;;41.92;24.63;;;;;;;12.89;96.18;97112.53;5017699;28;20094;-84
2022/10/07 10:09:28;;;;;;;46.88;24.98;;;;;;;12.68;95.46;97106.78;5024450;28;20074;-84
2022/10/07 10:12:03;;;;;;;53.92;26.98;;;;;;;12.82;96.05;97106.72;5006707;28;20048;-85
2022/10/07 10:14:41;;;;;;;39.42;23.75;;;;;;;12.99;95.63;97100.50;5003869;28;20054;-77
2022/10/07 10:17:21;;;;;;;52.15;27.42;;;;;;;12.94;94.88;97097.91;5013191;28;20053;-77
2022/10/07 10:19:48;;;;;;;40.53;24.10;;;;;;;13.04;94.65;97092.16;5017901;28;20052;-78
2022/10/07 10:22:25;;;;;;;39.55;23.13;;;;;;;13.18;93.94;97103.00;5016941;28;20050;-79
2022/10/07 10:27:44;;;;;;;41.72;23.23;;;;;;;13.38;94.25;97104.41;5016318;28;20117;-83
2022/10/07 10:30:19;;;;;;;41.33;24.13;;;;;;;13.48;94.71;97090.41;5019391;28;20048;-82
2022/10/07 10:33:11;;;;;;;41.25;23.48;;;;;;;13.52;94.53;97102.31;5004744;28;20042;-84
2022/10/07 10:35:45;;;;;;;41.97;24.25;;;;;;;13.42;93.01;97091.69;5041512;28;20571;-78
2022/10/07 10:38:28;;;;;;;44.92;25.70;;;;;;;13.37;93.33;97086.38;5036919;28;20103;-84
2022/10/07 10:41:12;;;;;;;37.80;22.50;;;;;;;13.46;93.13;97087.19;5029997;28;20101;-85
2022/10/07 10:43:55;;;;;;;46.03;26.27;;;;;;;13.37;92.45;97086.38;5047940;28;20045;-86
2022/10/07 10:46:38;;;;;;;38.22;22.80;;;;;;;13.31;92.78;97081.06;5043557;28;20053;-82
2022/10/07 10:49:19;;;;;;;46.00;26.55;;;;;;;13.42;92.80;97086.22;5020775;28;20126;-83
2022/10/07 10:52:05;;;;;;;36.85;22.30;;;;;;;13.53;92.78;97076.59;5022624;28;20057;-82
2022/10/07 10:54:45;;;;;;;44.47;26.80;;;;;;;13.53;92.92;97073.84;5027445;28;20066;-84
2022/10/07 10:57:21;;;;;;;44.88;25.67;;;;;;;13.58;92.52;97062.75;5011158;28;20050;-86
2022/10/07 11:00:11;;;;;;;40.17;24.00;;;;;;;13.66;92.61;97053.72;5018753;28;20054;-80
2022/10/07 11:03:12;;;;;;;37.28;22.85;;;;;;;13.65;93.36;97052.13;5014904;28;20054;-78
2022/10/07 11:05:41;;;;;;;44.35;25.05;;;;;;;13.67;92.58;97049.88;5015774;28;20056;-78
2022/10/07 11:08:15;;;;;;;44.30;25.30;;;;;;;13.78;92.05;97045.72;5016792;28;20050;-78
2022/10/07 11:10:50;;;;;;;40.70;23.70;;;;;;;13.90;91.63;97050.53;4999430;28;20053;-78
2022/10/07 11:13:27;;;;;;;38.03;23.00;;;;;;;13.95;91.42;97044.09;5019379;28;20042;-79
2022/10/07 11:16:00;;;;;;;33.13;21.85;;;;;;;14.02;91.17;97036.19;5024257;28;20050;-86
2022/10/07 11:18:34;;;;;;;35.80;23.92;;;;;;;14.03;89.71;97037.78;5028171;28;20042;-86
2022/10/07 11:21:06;;;;;;;32.92;22.05;;;;;;;13.96;90.17;97034.75;5026828;28;20056;-79
2022/10/07 11:23:44;;;;;;;40.33;22.45;;;;;;;13.99;90.94;97025.88;5028662;28;20046;-84
2022/10/07 11:26:20;;;;;;;46.10;25.80;;;;;;;13.94;91.15;97020.56;5025983;28;20040;-83
2022/10/07 11:28:50;;;;;;;37.88;23.45;;;;;;;13.99;90.94;97028.59;5023446;28;20042;-80
2022/10/07 11:31:26;;;;;;;45.75;25.58;;;;;;;13.97;90.77;97019.94;5015683;28;20161;-79
2022/10/07 11:34:06;;;;;;;41.10;24.10;;;;;;;14.01;90.51;97020.91;4998110;28;20572;-87
2022/10/07 11:36:43;;;;;;;39.45;24.50;;;;;;;13.93;89.62;97018.97;5021504;28;20030;-85
2022/10/07 11:39:11;;;;;;;36.33;23.15;;;;;;;13.98;90.05;97018.78;5009079;28;20066;-85
2022/10/07 11:41:49;;;;;;;34.50;21.88;;;;;;;13.97;89.87;97017.19;5004063;28;20045;-78
2022/10/07 11:44:23;;;;;;;29.20;19.73;;;;;;;14.13;89.08;97010.06;5007149;28;20057;-85
2022/10/07 11:46:51;;;;;;;37.13;21.05;;;;;;;14.15;88.59;97005.09;5024349;28;20076;-86
2022/10/07 11:49:22;;;;;;;34.50;21.23;;;;;;;14.19;88.96;97006.03;4990525;28;20058;-84
2022/10/07 11:51:54;;;;;;;35.47;22.13;;;;;;;14.13;88.54;96999.13;4993260;28;20038;-77
2022/10/07 11:54:26;;;;;;;27.70;19.17;;;;;;;14.20;87.90;96996.72;4993987;28;20043;-86
2022/10/07 11:56:58;;;;;;;32.97;22.15;;;;;;;14.23;87.74;97001.53;5002134;28;20110;-82
2022/10/07 11:59:33;;;;;;;33.83;21.30;;;;;;;14.17;88.13;96997.34;4984468;28;20482;-85
2022/10/07 12:02:00;;;;;;;30.55;20.10;;;;;;;14.29;88.09;96992.00;5009946;28;20073;-84
2022/10/07 12:04:38;;;;;;;38.08;24.38;;;;;;;14.27;87.67;96990.72;5011054;28;20066;-83